Lebakeng Airport


Codes: FXLK/LEF
Name: Lebakeng Airport
City: Lebakeng
Country: Lesotho
Elevation: 6000 ft.

Photos at Lebakeng Airport


   Photos courtesy of SpottingLog. You can add your own sightings and photos by signing up for a free trial today.



No photos found.

Weather at Lebakeng Airport


Time (UTC)DescriptionTempratureWindCloud coverageVisibilityPressureHumidity
18-Apr-2024 00:00Clear Sky11°C4 mph, NW6%10000m1024hPa67%
18-Apr-2024 03:00Clear Sky11°C4 mph, N6%10000m1024hPa72%
18-Apr-2024 06:00Clear Sky13°C4 mph, NW5%10000m1026hPa65%
18-Apr-2024 09:00Clear Sky18°C4 mph, W5%10000m1024hPa44%
18-Apr-2024 12:00Clear Sky20°C7 mph, SW8%10000m1021hPa35%
18-Apr-2024 15:00Clear Sky19°C4 mph, SW10%10000m1022hPa41%
18-Apr-2024 18:00Few Clouds14°C2 mph, S15%10000m1024hPa57%
18-Apr-2024 21:00Scattered Clouds13°C2 mph, N40%10000m1025hPa63%
19-Apr-2024 00:00Broken Clouds12°C2 mph, N70%10000m1024hPa65%
19-Apr-2024 03:00Few Clouds11°C4 mph, N22%10000m1025hPa70%
19-Apr-2024 06:00Few Clouds15°C2 mph, N11%10000m1025hPa53%
19-Apr-2024 09:00Clear Sky21°C2 mph, W1%10000m1022hPa33%
19-Apr-2024 12:00Few Clouds23°C4 mph, SW22%10000m1019hPa27%
19-Apr-2024 15:00Clear Sky21°C7 mph, S4%10000m1019hPa36%
19-Apr-2024 18:00Few Clouds16°C2 mph, W16%10000m1021hPa52%
19-Apr-2024 21:00Clear Sky14°C4 mph, NW2%10000m1021hPa58%
20-Apr-2024 00:00Clear Sky13°C4 mph, NW1%10000m1021hPa58%
20-Apr-2024 03:00Scattered Clouds12°C4 mph, NW49%10000m1021hPa58%
20-Apr-2024 06:00Scattered Clouds17°C4 mph, N25%10000m1021hPa44%
20-Apr-2024 09:00Clear Sky23°C4 mph, W0%10000m1018hPa31%
20-Apr-2024 12:00Clear Sky25°C13 mph, SW0%10000m1015hPa25%
20-Apr-2024 15:00Clear Sky22°C11 mph, W3%10000m1016hPa39%
20-Apr-2024 18:00Scattered Clouds17°C7 mph, NW36%10000m1018hPa54%
20-Apr-2024 21:00Broken Clouds16°C7 mph, NW83%10000m1018hPa58%
21-Apr-2024 00:00Broken Clouds15°C7 mph, NW73%10000m1018hPa61%
21-Apr-2024 03:00Overcast Clouds14°C4 mph, NW99%10000m1018hPa63%
21-Apr-2024 06:00Overcast Clouds17°C4 mph, NW86%10000m1018hPa51%
21-Apr-2024 09:00Few Clouds24°C11 mph, W15%10000m1016hPa20%
21-Apr-2024 12:00Scattered Clouds25°C18 mph, W34%10000m1014hPa17%
21-Apr-2024 15:00Broken Clouds22°C11 mph, W73%10000m1015hPa27%
21-Apr-2024 18:00Broken Clouds18°C7 mph, NW79%10000m1017hPa39%
21-Apr-2024 21:00Overcast Clouds17°C7 mph, N100%10000m1017hPa43%
22-Apr-2024 00:00Overcast Clouds16°C7 mph, N97%10000m1017hPa46%
22-Apr-2024 03:00Overcast Clouds15°C7 mph, N87%10000m1017hPa48%
22-Apr-2024 06:00Overcast Clouds18°C7 mph, NW92%10000m1017hPa41%
22-Apr-2024 09:00Broken Clouds24°C22 mph, W84%10000m1014hPa27%
22-Apr-2024 12:00Overcast Clouds25°C25 mph, W88%10000m1012hPa26%
22-Apr-2024 15:00Overcast Clouds23°C20 mph, W92%10000m1012hPa31%
22-Apr-2024 18:00Overcast Clouds17°C7 mph, NW87%10000m1015hPa45%
22-Apr-2024 21:00Broken Clouds15°C4 mph, NW68%10000m1016hPa52%